sensor_id;sensor_type;location;lat;lon;timestamp;pressure;altitude;pressure_sealevel;temperature;humidity
17772;BME280;9010;32.624;-96.938;2022-10-16T00:01:09;98782.50;;;29.94;73.49
17772;BME280;9010;32.624;-96.938;2022-10-16T00:03:39;98777.47;;;29.98;73.47
17772;BME280;9010;32.624;-96.938;2022-10-16T00:06:08;98784.41;;;29.94;74.22
17772;BME280;9010;32.624;-96.938;2022-10-16T00:08:36;98784.44;;;29.81;74.91
17772;BME280;9010;32.624;-96.938;2022-10-16T00:11:07;98772.75;;;29.74;75.06
17772;BME280;9010;32.624;-96.938;2022-10-16T00:13:37;98774.63;;;29.73;75.76
17772;BME280;9010;32.624;-96.938;2022-10-16T00:16:08;98768.19;;;29.68;76.84
17772;BME280;9010;32.624;-96.938;2022-10-16T00:18:37;98767.75;;;29.71;76.01
17772;BME280;9010;32.624;-96.938;2022-10-16T00:21:07;98774.88;;;29.58;76.72
17772;BME280;9010;32.624;-96.938;2022-10-16T00:23:35;98776.97;;;29.56;76.79
17772;BME280;9010;32.624;-96.938;2022-10-16T00:26:06;98786.19;;;29.42;78.26
17772;BME280;9010;32.624;-96.938;2022-10-16T00:28:35;98789.13;;;29.34;79.25
17772;BME280;9010;32.624;-96.938;2022-10-16T00:31:05;98780.16;;;29.27;78.66
17772;BME280;9010;32.624;-96.938;2022-10-16T00:33:35;98787.22;;;29.15;79.63
17772;BME280;9010;32.624;-96.938;2022-10-16T00:36:06;98790.78;;;29.09;81.12
17772;BME280;9010;32.624;-96.938;2022-10-16T00:38:34;98792.44;;;29.10;80.62
17772;BME280;9010;32.624;-96.938;2022-10-16T00:41:04;98793.50;;;29.09;80.40
17772;BME280;9010;32.624;-96.938;2022-10-16T00:43:36;98791.81;;;29.08;80.96
17772;BME280;9010;32.624;-96.938;2022-10-16T00:46:09;98789.53;;;29.05;80.91
17772;BME280;9010;32.624;-96.938;2022-10-16T00:48:41;98792.84;;;29.07;79.96
17772;BME280;9010;32.624;-96.938;2022-10-16T00:51:10;98785.97;;;29.04;81.54
17772;BME280;9010;32.624;-96.938;2022-10-16T00:53:38;98788.50;;;29.06;81.00
17772;BME280;9010;32.624;-96.938;2022-10-16T00:56:06;98787.44;;;29.07;80.33
17772;BME280;9010;32.624;-96.938;2022-10-16T00:58:35;98789.31;;;29.13;80.46
17772;BME280;9010;32.624;-96.938;2022-10-16T01:01:03;98792.44;;;29.10;80.02
17772;BME280;9010;32.624;-96.938;2022-10-16T01:03:33;98795.78;;;28.99;80.99
17772;BME280;9010;32.624;-96.938;2022-10-16T01:06:14;98794.72;;;28.87;81.59
17772;BME280;9010;32.624;-96.938;2022-10-16T01:11:41;98809.94;;;28.75;81.38
17772;BME280;9010;32.624;-96.938;2022-10-16T01:14:18;98805.75;;;28.66;81.95
17772;BME280;9010;32.624;-96.938;2022-10-16T01:16:52;98799.03;;;28.48;82.80
17772;BME280;9010;32.624;-96.938;2022-10-16T01:19:38;98810.44;;;28.37;83.95
17772;BME280;9010;32.624;-96.938;2022-10-16T01:22:10;98817.06;;;28.28;84.93
17772;BME280;9010;32.624;-96.938;2022-10-16T01:24:40;98812.47;;;28.22;84.97
17772;BME280;9010;32.624;-96.938;2022-10-16T01:27:12;98818.50;;;28.24;85.01
17772;BME280;9010;32.624;-96.938;2022-10-16T01:29:53;98815.59;;;28.19;84.75
17772;BME280;9010;32.624;-96.938;2022-10-16T01:32:30;98821.00;;;28.19;83.89
17772;BME280;9010;32.624;-96.938;2022-10-16T01:35:03;98823.03;;;28.11;84.99
17772;BME280;9010;32.624;-96.938;2022-10-16T01:37:36;98828.81;;;28.01;86.34
17772;BME280;9010;32.624;-96.938;2022-10-16T01:40:09;98824.81;;;27.97;86.97
17772;BME280;9010;32.624;-96.938;2022-10-16T01:42:44;98820.38;;;27.83;87.04
17772;BME280;9010;32.624;-96.938;2022-10-16T01:45:15;98829.28;;;27.77;87.40
17772;BME280;9010;32.624;-96.938;2022-10-16T01:47:48;98835.03;;;27.67;87.79
17772;BME280;9010;32.624;-96.938;2022-10-16T01:50:18;98828.97;;;27.59;90.17
17772;BME280;9010;32.624;-96.938;2022-10-16T01:52:49;98828.09;;;27.52;93.00
17772;BME280;9010;32.624;-96.938;2022-10-16T01:55:24;98829.28;;;27.43;91.10
17772;BME280;9010;32.624;-96.938;2022-10-16T01:57:58;98836.28;;;27.37;92.55
17772;BME280;9010;32.624;-96.938;2022-10-16T02:00:28;98841.63;;;27.30;93.06
17772;BME280;9010;32.624;-96.938;2022-10-16T02:02:59;98844.47;;;27.22;91.94
17772;BME280;9010;32.624;-96.938;2022-10-16T02:05:32;98840.31;;;27.20;92.61
17772;BME280;9010;32.624;-96.938;2022-10-16T02:08:02;98843.59;;;27.15;92.37
17772;BME280;9010;32.624;-96.938;2022-10-16T02:10:31;98843.16;;;27.12;92.58
17772;BME280;9010;32.624;-96.938;2022-10-16T02:13:05;98845.78;;;27.05;96.54
17772;BME280;9010;32.624;-96.938;2022-10-16T02:15:35;98845.53;;;27.00;95.84
17772;BME280;9010;32.624;-96.938;2022-10-16T02:18:04;98845.91;;;26.97;93.43
17772;BME280;9010;32.624;-96.938;2022-10-16T02:20:38;98848.84;;;26.96;97.33
17772;BME280;9010;32.624;-96.938;2022-10-16T02:23:12;98841.69;;;26.88;98.89
17772;BME280;9010;32.624;-96.938;2022-10-16T02:25:44;98848.69;;;26.82;100.00
17772;BME280;9010;32.624;-96.938;2022-10-16T02:28:19;98846.53;;;26.78;98.55
17772;BME280;9010;32.624;-96.938;2022-10-16T02:30:53;98838.59;;;26.70;99.58
17772;BME280;9010;32.624;-96.938;2022-10-16T02:33:25;98842.69;;;26.66;97.53
17772;BME280;9010;32.624;-96.938;2022-10-16T02:35:55;98835.81;;;26.63;97.47
17772;BME280;9010;32.624;-96.938;2022-10-16T02:38:25;98843.03;;;26.56;95.66
17772;BME280;9010;32.624;-96.938;2022-10-16T02:40:55;98841.50;;;26.54;97.33
17772;BME280;9010;32.624;-96.938;2022-10-16T02:43:25;98846.28;;;26.52;98.72
17772;BME280;9010;32.624;-96.938;2022-10-16T02:45:53;98846.66;;;26.49;100.00
17772;BME280;9010;32.624;-96.938;2022-10-16T02:48:22;98841.84;;;26.44;100.00
17772;BME280;9010;32.624;-96.938;2022-10-16T02:50:50;98850.09;;;26.43;100.00
17772;BME280;9010;32.624;-96.938;2022-10-16T02:53:18;98850.47;;;26.40;100.00
17772;BME280;9010;32.624;-96.938;2022-10-16T02:55:47;98848.94;;;26.31;100.00
17772;BME280;9010;32.624;-96.938;2022-10-16T02:58:15;98848.28;;;26.28;100.00
17772;BME280;9010;32.624;-96.938;2022-10-16T03:00:45;98841.78;;;26.23;100.00
17772;BME280;9010;32.624;-96.938;2022-10-16T03:03:14;98842.16;;;26.20;99.17
17772;BME280;9010;32.624;-96.938;2022-10-16T03:05:43;98844.69;;;26.21;100.00
17772;BME280;9010;32.624;-96.938;2022-10-16T03:08:12;98844.88;;;26.20;100.00
17772;BME280;9010;32.624;-96.938;2022-10-16T03:10:40;98851.28;;;26.19;100.00
17772;BME280;9010;32.624;-96.938;2022-10-16T03:13:09;98848.84;;;26.09;100.00
17772;BME280;9010;32.624;-96.938;2022-10-16T03:15:37;98842.56;;;26.02;100.00
17772;BME280;9010;32.624;-96.938;2022-10-16T03:18:07;98853.03;;;25.97;100.00
17772;BME280;9010;32.624;-96.938;2022-10-16T03:20:35;98847.50;;;25.84;100.00
17772;BME280;9010;32.624;-96.938;2022-10-16T03:23:03;98844.16;;;25.82;100.00
17772;BME280;9010;32.624;-96.938;2022-10-16T03:25:32;98841.72;;;25.87;100.00
17772;BME280;9010;32.624;-96.938;2022-10-16T03:28:01;98838.94;;;25.95;100.00
17772;BME280;9010;32.624;-96.938;2022-10-16T03:30:29;98832.59;;;26.03;99.22
17772;BME280;9010;32.624;-96.938;2022-10-16T03:32:57;98835.22;;;25.96;100.00
17772;BME280;9010;32.624;-96.938;2022-10-16T03:35:27;98834.84;;;25.99;100.00
17772;BME280;9010;32.624;-96.938;2022-10-16T03:37:56;98839.56;;;25.97;100.00
17772;BME280;9010;32.624;-96.938;2022-10-16T03:40:24;98827.63;;;25.85;100.00
17772;BME280;9010;32.624;-96.938;2022-10-16T03:42:52;98835.50;;;25.87;100.00
17772;BME280;9010;32.624;-96.938;2022-10-16T03:45:23;98842.94;;;25.85;100.00
17772;BME280;9010;32.624;-96.938;2022-10-16T03:47:51;98844.78;;;25.84;99.88
17772;BME280;9010;32.624;-96.938;2022-10-16T03:50:19;98840.78;;;25.80;100.00
17772;BME280;9010;32.624;-96.938;2022-10-16T03:52:49;98841.72;;;25.73;100.00
17772;BME280;9010;32.624;-96.938;2022-10-16T03:55:17;98840.25;;;25.70;100.00
17772;BME280;9010;32.624;-96.938;2022-10-16T03:57:46;98848.59;;;25.75;100.00
17772;BME280;9010;32.624;-96.938;2022-10-16T04:00:14;98841.94;;;25.71;100.00
17772;BME280;9010;32.624;-96.938;2022-10-16T04:02:43;98840.41;;;25.83;99.05
17772;BME280;9010;32.624;-96.938;2022-10-16T04:05:11;98850.38;;;25.83;100.00
17772;BME280;9010;32.624;-96.938;2022-10-16T04:07:39;98846.09;;;25.88;99.13
17772;BME280;9010;32.624;-96.938;2022-10-16T04:10:09;98844.06;;;25.90;99.41
17772;BME280;9010;32.624;-96.938;2022-10-16T04:12:37;98846.09;;;25.88;99.06
17772;BME280;9010;32.624;-96.938;2022-10-16T04:15:06;98850.91;;;25.93;98.72
17772;BME280;9010;32.624;-96.938;2022-10-16T04:17:35;98857.44;;;25.84;100.00
17772;BME280;9010;32.624;-96.938;2022-10-16T04:20:04;98858.63;;;25.81;100.00
17772;BME280;9010;32.624;-96.938;2022-10-16T04:22:32;98854.00;;;25.75;100.00
17772;BME280;9010;32.624;-96.938;2022-10-16T04:25:00;98858.25;;;25.69;100.00
17772;BME280;9010;32.624;-96.938;2022-10-16T04:27:30;98861.44;;;25.73;99.99
17772;BME280;9010;32.624;-96.938;2022-10-16T04:29:59;98867.19;;;25.70;100.00
17772;BME280;9010;32.624;-96.938;2022-10-16T04:32:27;98872.09;;;25.66;100.00
17772;BME280;9010;32.624;-96.938;2022-10-16T04:34:55;98872.19;;;25.73;100.00
17772;BME280;9010;32.624;-96.938;2022-10-16T04:37:24;98866.44;;;25.76;100.00
17772;BME280;9010;32.624;-96.938;2022-10-16T04:39:53;98855.31;;;25.79;98.93
17772;BME280;9010;32.624;-96.938;2022-10-16T04:42:21;98857.78;;;25.81;99.13
17772;BME280;9010;32.624;-96.938;2022-10-16T04:44:51;98865.22;;;25.79;98.62
17772;BME280;9010;32.624;-96.938;2022-10-16T04:47:19;98870.34;;;25.74;98.84
17772;BME280;9010;32.624;-96.938;2022-10-16T04:49:48;98871.19;;;25.74;100.00
17772;BME280;9010;32.624;-96.938;2022-10-16T04:52:16;98872.81;;;25.60;100.00
17772;BME280;9010;32.624;-96.938;2022-10-16T04:54:45;98871.72;;;25.55;100.00
17772;BME280;9010;32.624;-96.938;2022-10-16T04:57:13;98871.19;;;25.59;100.00
17772;BME280;9010;32.624;-96.938;2022-10-16T04:59:41;98873.66;;;25.61;100.00
17772;BME280;9010;32.624;-96.938;2022-10-16T05:02:11;98867.06;;;25.63;100.00
17772;BME280;9010;32.624;-96.938;2022-10-16T05:04:39;98862.81;;;25.69;99.67
17772;BME280;9010;32.624;-96.938;2022-10-16T05:07:07;98868.50;;;25.74;98.34
17772;BME280;9010;32.624;-96.938;2022-10-16T05:09:36;98867.19;;;25.70;97.77
17772;BME280;9010;32.624;-96.938;2022-10-16T05:12:04;98859.00;;;25.63;98.71
17772;BME280;9010;32.624;-96.938;2022-10-16T05:14:32;98873.88;;;25.74;96.36
17772;BME280;9010;32.624;-96.938;2022-10-16T05:17:01;98856.03;;;25.73;95.63
17772;BME280;9010;32.624;-96.938;2022-10-16T05:19:30;98874.22;;;25.86;96.51
17772;BME280;9010;32.624;-96.938;2022-10-16T05:21:59;98866.56;;;25.83;97.03
17772;BME280;9010;32.624;-96.938;2022-10-16T05:24:27;98872.47;;;25.78;97.44
17772;BME280;9010;32.624;-96.938;2022-10-16T05:26:55;98869.31;;;25.75;97.30
17772;BME280;9010;32.624;-96.938;2022-10-16T05:29:24;98860.94;;;25.69;98.15
17772;BME280;9010;32.624;-96.938;2022-10-16T05:31:52;98866.34;;;25.69;99.21
17772;BME280;9010;32.624;-96.938;2022-10-16T05:34:21;98864.50;;;25.70;98.44
17772;BME280;9010;32.624;-96.938;2022-10-16T05:36:51;98862.63;;;25.70;96.61
17772;BME280;9010;32.624;-96.938;2022-10-16T05:39:19;98856.41;;;25.70;98.79
17772;BME280;9010;32.624;-96.938;2022-10-16T05:41:49;98861.53;;;25.65;98.16
17772;BME280;9010;32.624;-96.938;2022-10-16T05:44:18;98862.34;;;25.51;99.10
17772;BME280;9010;32.624;-96.938;2022-10-16T05:46:46;98863.06;;;25.45;98.00
17772;BME280;9010;32.624;-96.938;2022-10-16T05:49:15;98868.16;;;25.40;99.37
17772;BME280;9010;32.624;-96.938;2022-10-16T05:51:43;98857.66;;;25.45;97.85
17772;BME280;9010;32.624;-96.938;2022-10-16T05:54:13;98862.72;;;25.48;96.90
17772;BME280;9010;32.624;-96.938;2022-10-16T05:56:42;98863.41;;;25.42;98.43
17772;BME280;9010;32.624;-96.938;2022-10-16T05:59:10;98853.84;;;25.39;98.38
17772;BME280;9010;32.624;-96.938;2022-10-16T06:01:38;98849.31;;;25.40;97.60
17772;BME280;9010;32.624;-96.938;2022-10-16T06:04:07;98849.31;;;25.40;97.96
17772;BME280;9010;32.624;-96.938;2022-10-16T06:06:36;98825.91;;;25.26;98.39
17772;BME280;9010;32.624;-96.938;2022-10-16T06:09:04;98853.00;;;25.39;98.63
17772;BME280;9010;32.624;-96.938;2022-10-16T06:11:34;98844.66;;;25.34;97.80
17772;BME280;9010;32.624;-96.938;2022-10-16T06:14:02;98843.34;;;25.30;96.94
17772;BME280;9010;32.624;-96.938;2022-10-16T06:16:33;98849.66;;;25.37;98.43
17772;BME280;9010;32.624;-96.938;2022-10-16T06:19:02;98850.03;;;25.34;98.89
17772;BME280;9010;32.624;-96.938;2022-10-16T06:21:32;98857.28;;;25.33;98.33
17772;BME280;9010;32.624;-96.938;2022-10-16T06:24:01;98848.72;;;25.30;98.05
17772;BME280;9010;32.624;-96.938;2022-10-16T06:26:30;98849.09;;;25.27;99.71
17772;BME280;9010;32.624;-96.938;2022-10-16T06:29:00;98849.53;;;25.15;100.00
17772;BME280;9010;32.624;-96.938;2022-10-16T06:31:29;98852.06;;;25.17;99.67
17772;BME280;9010;32.624;-96.938;2022-10-16T06:33:59;98835.94;;;25.09;100.00
17772;BME280;9010;32.624;-96.938;2022-10-16T06:36:28;98845.53;;;25.11;100.00
17772;BME280;9010;32.624;-96.938;2022-10-16T06:38:56;98845.91;;;25.08;100.00
17772;BME280;9010;32.624;-96.938;2022-10-16T06:41:25;98841.91;;;25.04;100.00
17772;BME280;9010;32.624;-96.938;2022-10-16T06:43:53;98842.91;;;25.03;100.00
17772;BME280;9010;32.624;-96.938;2022-10-16T06:46:24;98847.91;;;25.06;100.00
17772;BME280;9010;32.624;-96.938;2022-10-16T06:48:53;98844.09;;;25.01;100.00
17772;BME280;9010;32.624;-96.938;2022-10-16T06:51:22;98852.97;;;24.87;100.00
17772;BME280;9010;32.624;-96.938;2022-10-16T06:53:52;98846.66;;;24.80;100.00
17772;BME280;9010;32.624;-96.938;2022-10-16T06:56:24;98842.91;;;24.81;100.00
17772;BME280;9010;32.624;-96.938;2022-10-16T06:58:53;98847.69;;;24.71;100.00
17772;BME280;9010;32.624;-96.938;2022-10-16T07:01:24;98848.16;;;24.74;100.00
17772;BME280;9010;32.624;-96.938;2022-10-16T07:03:53;98846.56;;;24.65;100.00
17772;BME280;9010;32.624;-96.938;2022-10-16T07:06:22;98843.25;;;24.55;100.00
17772;BME280;9010;32.624;-96.938;2022-10-16T07:08:51;98847.63;;;24.56;100.00
17772;BME280;9010;32.624;-96.938;2022-10-16T07:11:20;98851.69;;;24.52;100.00
17772;BME280;9010;32.624;-96.938;2022-10-16T07:13:49;98846.84;;;24.47;100.00
17772;BME280;9010;32.624;-96.938;2022-10-16T07:16:19;98846.47;;;24.50;100.00
17772;BME280;9010;32.624;-96.938;2022-10-16T07:18:49;98842.88;;;24.58;100.00
17772;BME280;9010;32.624;-96.938;2022-10-16T07:21:24;98848.25;;;24.66;100.00
17772;BME280;9010;32.624;-96.938;2022-10-16T07:23:54;98845.00;;;24.71;100.00
17772;BME280;9010;32.624;-96.938;2022-10-16T07:26:22;98839.50;;;24.64;100.00
17772;BME280;9010;32.624;-96.938;2022-10-16T07:28:51;98833.81;;;24.59;100.00
17772;BME280;9010;32.624;-96.938;2022-10-16T07:31:20;98828.78;;;24.56;100.00
17772;BME280;9010;32.624;-96.938;2022-10-16T07:33:50;98833.81;;;24.59;100.00
17772;BME280;9010;32.624;-96.938;2022-10-16T07:36:19;98831.13;;;24.59;100.00
17772;BME280;9010;32.624;-96.938;2022-10-16T07:38:48;98825.25;;;24.55;100.00
17772;BME280;9010;32.624;-96.938;2022-10-16T07:41:18;98831.00;;;24.52;100.00
17772;BME280;9010;32.624;-96.938;2022-10-16T07:43:47;98832.69;;;24.53;100.00
17772;BME280;9010;32.624;-96.938;2022-10-16T07:46:16;98823.41;;;24.56;100.00
17772;BME280;9010;32.624;-96.938;2022-10-16T07:48:45;98818.88;;;24.56;100.00
17772;BME280;9010;32.624;-96.938;2022-10-16T07:51:16;98814.88;;;24.52;100.00
17772;BME280;9010;32.624;-96.938;2022-10-16T07:53:45;98811.38;;;24.52;100.00
17772;BME280;9010;32.624;-96.938;2022-10-16T07:56:14;98811.25;;;24.45;100.00
17772;BME280;9010;32.624;-96.938;2022-10-16T07:58:43;98811.59;;;24.42;100.00
17772;BME280;9010;32.624;-96.938;2022-10-16T08:01:14;98807.13;;;24.35;100.00
17772;BME280;9010;32.624;-96.938;2022-10-16T08:03:43;98803.69;;;24.41;100.00
17772;BME280;9010;32.624;-96.938;2022-10-16T08:06:11;98802.13;;;24.46;100.00
17772;BME280;9010;32.624;-96.938;2022-10-16T08:08:41;98798.03;;;24.36;100.00
17772;BME280;9010;32.624;-96.938;2022-10-16T08:11:10;98804.09;;;24.38;100.00
17772;BME280;9010;32.624;-96.938;2022-10-16T08:13:38;98806.38;;;24.41;100.00
17772;BME280;9010;32.624;-96.938;2022-10-16T08:16:06;98811.47;;;24.36;100.00
17772;BME280;9010;32.624;-96.938;2022-10-16T08:18:36;98814.44;;;24.41;100.00
17772;BME280;9010;32.624;-96.938;2022-10-16T08:21:06;98815.28;;;24.41;100.00
17772;BME280;9010;32.624;-96.938;2022-10-16T08:23:34;98825.09;;;24.34;100.00
17772;BME280;9010;32.624;-96.938;2022-10-16T08:26:08;98828.63;;;24.35;100.00
17772;BME280;9010;32.624;-96.938;2022-10-16T08:28:36;98827.59;;;24.36;100.00
17772;BME280;9010;32.624;-96.938;2022-10-16T08:31:06;98832.59;;;24.39;100.00
17772;BME280;9010;32.624;-96.938;2022-10-16T08:33:35;98833.81;;;24.36;100.00
17772;BME280;9010;32.624;-96.938;2022-10-16T08:36:04;98827.28;;;24.31;100.00
17772;BME280;9010;32.624;-96.938;2022-10-16T08:38:33;98830.63;;;24.33;100.00
17772;BME280;9010;32.624;-96.938;2022-10-16T08:41:17;98832.31;;;24.34;100.00
17772;BME280;9010;32.624;-96.938;2022-10-16T08:44:19;98839.03;;;24.30;100.00
17772;BME280;9010;32.624;-96.938;2022-10-16T08:46:58;98824.59;;;24.31;100.00
17772;BME280;9010;32.624;-96.938;2022-10-16T08:49:30;98817.69;;;24.36;100.00
17772;BME280;9010;32.624;-96.938;2022-10-16T08:51:59;98818.16;;;24.40;100.00
17772;BME280;9010;32.624;-96.938;2022-10-16T08:54:31;98813.72;;;24.47;100.00
17772;BME280;9010;32.624;-96.938;2022-10-16T08:57:09;98817.81;;;24.43;100.00
17772;BME280;9010;32.624;-96.938;2022-10-16T08:59:39;98823.25;;;24.35;100.00
17772;BME280;9010;32.624;-96.938;2022-10-16T09:02:22;98834.94;;;24.42;100.00
17772;BME280;9010;32.624;-96.938;2022-10-16T09:05:03;98827.28;;;24.31;100.00
17772;BME280;9010;32.624;-96.938;2022-10-16T09:07:39;98831.31;;;24.27;100.00
17772;BME280;9010;32.624;-96.938;2022-10-16T09:10:23;98835.06;;;24.26;100.00
17772;BME280;9010;32.624;-96.938;2022-10-16T09:13:02;98843.13;;;24.26;100.00
17772;BME280;9010;32.624;-96.938;2022-10-16T09:15:39;98851.34;;;24.24;100.00
17772;BME280;9010;32.624;-96.938;2022-10-16T09:18:22;98843.97;;;24.26;100.00
17772;BME280;9010;32.624;-96.938;2022-10-16T09:20:58;98831.16;;;24.28;100.00
17772;BME280;9010;32.624;-96.938;2022-10-16T09:23:30;98826.28;;;24.32;100.00
17772;BME280;9010;32.624;-96.938;2022-10-16T09:25:58;98825.75;;;24.36;100.00
17772;BME280;9010;32.624;-96.938;2022-10-16T09:28:28;98816.72;;;24.29;100.00
17772;BME280;9010;32.624;-96.938;2022-10-16T09:30:57;98823.09;;;24.28;100.00
17772;BME280;9010;32.624;-96.938;2022-10-16T09:33:28;98820.06;;;24.31;100.00
17772;BME280;9010;32.624;-96.938;2022-10-16T09:35:58;98830.81;;;24.31;100.00
17772;BME280;9010;32.624;-96.938;2022-10-16T09:38:29;98823.94;;;24.29;100.00
17772;BME280;9010;32.624;-96.938;2022-10-16T09:40:59;98824.09;;;24.27;100.00
17772;BME280;9010;32.624;-96.938;2022-10-16T09:43:34;98823.31;;;24.19;100.00
17772;BME280;9010;32.624;-96.938;2022-10-16T09:46:06;98825.84;;;24.20;100.00
17772;BME280;9010;32.624;-96.938;2022-10-16T09:48:38;98824.00;;;24.21;100.00
17772;BME280;9010;32.624;-96.938;2022-10-16T09:51:18;98826.00;;;24.19;100.00
17772;BME280;9010;32.624;-96.938;2022-10-16T09:53:47;98829.72;;;24.18;100.00
17772;BME280;9010;32.624;-96.938;2022-10-16T09:56:22;98835.59;;;24.13;100.00
17772;BME280;9010;32.624;-96.938;2022-10-16T09:58:53;98837.47;;;24.04;100.00
17772;BME280;9010;32.624;-96.938;2022-10-16T10:01:26;98832.78;;;24.07;100.00
17772;BME280;9010;32.624;-96.938;2022-10-16T10:03:57;98830.75;;;24.09;100.00
17772;BME280;9010;32.624;-96.938;2022-10-16T10:06:30;98820.34;;;24.06;100.00
17772;BME280;9010;32.624;-96.938;2022-10-16T10:09:05;98815.31;;;24.02;100.00
17772;BME280;9010;32.624;-96.938;2022-10-16T10:11:43;98812.16;;;23.99;100.00
17772;BME280;9010;32.624;-96.938;2022-10-16T10:14:21;98823.78;;;23.91;100.00
17772;BME280;9010;32.624;-96.938;2022-10-16T10:16:52;98823.06;;;23.97;100.00
17772;BME280;9010;32.624;-96.938;2022-10-16T10:19:22;98821.75;;;23.93;100.00
17772;BME280;9010;32.624;-96.938;2022-10-16T10:21:51;98822.44;;;23.87;100.00
17772;BME280;9010;32.624;-96.938;2022-10-16T10:24:20;98811.03;;;23.85;100.00
17772;BME280;9010;32.624;-96.938;2022-10-16T10:26:54;98828.00;;;23.86;100.00
17772;BME280;9010;32.624;-96.938;2022-10-16T10:29:34;98835.91;;;23.79;100.00
17772;BME280;9010;32.624;-96.938;2022-10-16T10:32:15;98859.59;;;23.68;100.00
17772;BME280;9010;32.624;-96.938;2022-10-16T10:34:58;98903.22;;;23.62;100.00
17772;BME280;9010;32.624;-96.938;2022-10-16T10:37:43;98973.38;;;23.59;100.00
17772;BME280;9010;32.624;-96.938;2022-10-16T10:40:27;98996.00;;;23.64;100.00
17772;BME280;9010;32.624;-96.938;2022-10-16T10:43:00;99003.72;;;23.67;100.00
17772;BME280;9010;32.624;-96.938;2022-10-16T10:45:41;99007.78;;;23.71;100.00
17772;BME280;9010;32.624;-96.938;2022-10-16T10:48:24;99025.88;;;23.77;100.00
17772;BME280;9010;32.624;-96.938;2022-10-16T10:50:59;99034.94;;;23.68;100.00
17772;BME280;9010;32.624;-96.938;2022-10-16T10:53:41;99029.75;;;23.67;100.00
17772;BME280;9010;32.624;-96.938;2022-10-16T10:56:24;99054.41;;;23.62;100.00
17772;BME280;9010;32.624;-96.938;2022-10-16T10:59:09;99086.13;;;23.59;100.00
17772;BME280;9010;32.624;-96.938;2022-10-16T11:01:50;99121.50;;;23.38;100.00
17772;BME280;9010;32.624;-96.938;2022-10-16T11:04:45;99140.44;;;23.03;100.00
17772;BME280;9010;32.624;-96.938;2022-10-16T11:07:21;99162.81;;;22.85;100.00
17772;BME280;9010;32.624;-96.938;2022-10-16T11:09:55;99145.75;;;22.61;100.00
17772;BME280;9010;32.624;-96.938;2022-10-16T11:12:28;99135.41;;;22.22;100.00
17772;BME280;9010;32.624;-96.938;2022-10-16T11:15:03;99137.84;;;22.08;100.00
17772;BME280;9010;32.624;-96.938;2022-10-16T11:17:38;99158.81;;;21.95;100.00
17772;BME280;9010;32.624;-96.938;2022-10-16T11:20:14;99182.13;;;21.85;100.00
17772;BME280;9010;32.624;-96.938;2022-10-16T11:22:48;99167.41;;;21.53;100.00
17772;BME280;9010;32.624;-96.938;2022-10-16T11:25:21;99169.16;;;21.45;100.00
17772;BME280;9010;32.624;-96.938;2022-10-16T11:27:55;99194.28;;;21.34;100.00
17772;BME280;9010;32.624;-96.938;2022-10-16T11:30:27;99196.63;;;21.19;100.00
17772;BME280;9010;32.624;-96.938;2022-10-16T11:33:18;99193.84;;;21.11;100.00
17772;BME280;9010;32.624;-96.938;2022-10-16T11:35:54;99186.59;;;21.22;100.00
17772;BME280;9010;32.624;-96.938;2022-10-16T11:38:29;99209.34;;;20.98;100.00
17772;BME280;9010;32.624;-96.938;2022-10-16T11:41:02;99210.66;;;20.85;100.00
17772;BME280;9010;32.624;-96.938;2022-10-16T11:43:36;99219.66;;;20.84;100.00
17772;BME280;9010;32.624;-96.938;2022-10-16T11:46:11;99211.41;;;20.68;100.00
17772;BME280;9010;32.624;-96.938;2022-10-16T11:48:48;99216.63;;;20.59;100.00
17772;BME280;9010;32.624;-96.938;2022-10-16T11:51:24;99223.97;;;20.57;100.00
17772;BME280;9010;32.624;-96.938;2022-10-16T11:54:01;99223.53;;;20.52;100.00
17772;BME280;9010;32.624;-96.938;2022-10-16T11:56:32;99217.78;;;20.38;100.00
17772;BME280;9010;32.624;-96.938;2022-10-16T11:59:10;99227.38;;;20.40;100.00
17772;BME280;9010;32.624;-96.938;2022-10-16T12:01:46;99226.63;;;20.38;100.00
17772;BME280;9010;32.624;-96.938;2022-10-16T12:04:24;99241.00;;;20.37;100.00
17772;BME280;9010;32.624;-96.938;2022-10-16T12:06:57;99231.69;;;20.22;100.00
17772;BME280;9010;32.624;-96.938;2022-10-16T12:09:32;99241.53;;;20.22;100.00
17772;BME280;9010;32.624;-96.938;2022-10-16T12:12:00;99236.63;;;20.17;100.00
17772;BME280;9010;32.624;-96.938;2022-10-16T12:14:37;99239.81;;;20.21;100.00
17772;BME280;9010;32.624;-96.938;2022-10-16T12:17:24;99248.16;;;20.18;100.00
17772;BME280;9010;32.624;-96.938;2022-10-16T12:20:19;99237.88;;;20.13;100.00
17772;BME280;9010;32.624;-96.938;2022-10-16T12:22:49;99250.38;;;20.13;100.00
17772;BME280;9010;32.624;-96.938;2022-10-16T12:25:22;99253.59;;;20.16;100.00
17772;BME280;9010;32.624;-96.938;2022-10-16T12:28:02;99254.03;;;20.12;100.00
17772;BME280;9010;32.624;-96.938;2022-10-16T12:30:34;99268.38;;;20.11;100.00
17772;BME280;9010;32.624;-96.938;2022-10-16T12:33:04;99268.25;;;20.12;100.00
17772;BME280;9010;32.624;-96.938;2022-10-16T12:35:42;99281.41;;;20.04;100.00
17772;BME280;9010;32.624;-96.938;2022-10-16T12:38:19;99287.31;;;19.98;100.00
17772;BME280;9010;32.624;-96.938;2022-10-16T12:40:57;99285.09;;;20.03;100.00
17772;BME280;9010;32.624;-96.938;2022-10-16T12:43:38;99291.53;;;20.00;100.00
17772;BME280;9010;32.624;-96.938;2022-10-16T12:46:24;99286.59;;;19.96;100.00
17772;BME280;9010;32.624;-96.938;2022-10-16T12:49:20;99283.78;;;19.88;100.00
17772;BME280;9010;32.624;-96.938;2022-10-16T12:51:52;99289.13;;;19.88;100.00
17772;BME280;9010;32.624;-96.938;2022-10-16T12:54:25;99287.44;;;19.87;100.00
17772;BME280;9010;32.624;-96.938;2022-10-16T12:57:17;99297.00;;;19.89;100.00
17772;BME280;9010;32.624;-96.938;2022-10-16T12:59:53;99293.22;;;19.92;100.00
17772;BME280;9010;32.624;-96.938;2022-10-16T13:02:44;99281.41;;;19.85;100.00
17772;BME280;9010;32.624;-96.938;2022-10-16T13:05:26;99279.81;;;19.73;100.00
17772;BME280;9010;32.624;-96.938;2022-10-16T13:08:09;99281.09;;;19.78;100.00
17772;BME280;9010;32.624;-96.938;2022-10-16T13:10:46;99296.56;;;19.75;100.00